Pagina principală
Imagini satelitare Vremea 15-zileClimăMare Cicloane Trăsnet AeroporturiÎntrebări Noutăţi Despre
Meteo : Europa Africa America de Nord America de Sud Asia Australia-Oceania Alte
Limbi Contact

Bucureşti-Băneasa, România

Aurel Vlaicu

Latitudine: 44-30N, Longitudine: 026-08E, Altitudine: 90 m


METAR: LRBS 011330Z 07009KT 020V120 CAVOK 28/09 Q1010 NOSIG
short-TAF: invechit (10058 ore)
long-TAF: LRBS 011100Z 0112/0212 07008KT CAVOK

Oră: 16:35 (13:35 UTC)

observaţii meteorologice

Raportul a fost facut 5 minute în urmă, la 13:30 UTC  
Vânt 09 kt de la Est/Nord-Est, variabil Nord/Nord-Est si Est/Sud-Est
Temperatură 28°C
Umiditatea 30%
Presiune 1010 hPa
Vizibilitate 10 km sau mai mult
Vizibilitatea, norii şi fenomenele meteo actuale mai bune decât valorile sau condiţiile stabilite

Unităţile de măsură

Prognoză

Raportul a fost facut 2 ore si 2 minute în urmă, la 11:33 UTC  
Prognoza valabil de 01la ora 12 UTC până 02la ora 12 UTC
Vânt 08 kt de la Est/Nord-Est
Vizibilitate 10 km sau mai mult
Vizibilitatea, norii şi fenomenele meteo actuale mai bune decât valorile sau condiţiile stabilite
Informaţiile de pe acest site fac obiectul unei denegări de responsabilitate
Meteo : Europa Africa America de Nord America de Sud Asia Australia-Oceania Alte
Imagini satelitare Vremea 15-zileClimăMare Cicloane Trăsnet AeroporturiÎntrebări Limbi Contact Noutăţi Despre